Time;durP1;ratioP1;P1;durP2;ratioP2;P2;SDS_P1;SDS_P2;PMS_P1;PMS_P2;Temp;Humidity;BMP_temperature;BMP_pressure;BME280_temperature;BME280_humidity;BME280_pressure;Samples;Min_cycle;Max_cycle;Signal;HPM_P1;HPM_P2
2022/09/17 13:55:42;;;;;;;0.75;0.70;;;;;;;;;;6227479;22;20077;-82
2022/09/17 13:58:22;;;;;;;1.08;0.60;;;;;;;;;;6278149;22;20316;-81
2022/09/17 14:00:58;;;;;;;1.33;0.85;;;;;;;;;;6250803;22;20014;-81
2022/09/17 14:03:45;;;;;;;0.60;0.60;;;;;;;;;;6249755;22;20008;-81
2022/09/17 14:06:10;;;;;;;3.05;0.82;;;;;;;;;;6220400;23;20004;-81
2022/09/17 14:08:42;;;;;;;0.95;0.80;;;;;;;;;;6247309;23;20011;-82
2022/09/17 14:11:23;;;;;;;1.00;0.85;;;;;;;;;;6220306;23;20399;-82
2022/09/17 14:13:55;;;;;;;0.93;0.80;;;;;;;;;;6247075;23;20481;-81
2022/09/17 14:16:35;;;;;;;2.25;0.60;;;;;;;;;;6247245;23;20347;-81
2022/09/17 14:19:17;;;;;;;0.80;0.80;;;;;;;;;;6247504;23;20050;-82
2022/09/17 14:22:00;;;;;;;1.02;0.80;;;;;;;;;;6247200;22;20000;-82
2022/09/17 14:24:39;;;;;;;1.05;0.80;;;;;;;;;;6221091;23;20031;-82
2022/09/17 14:27:35;;;;;;;0.98;0.93;;;;;;;;;;6246964;23;20024;-82
2022/09/17 14:30:09;;;;;;;0.68;0.68;;;;;;;;;;6246952;23;20008;-82
2022/09/17 14:32:59;;;;;;;1.17;0.90;;;;;;;;;;6246721;22;20004;-82
2022/09/17 14:35:39;;;;;;;0.90;0.90;;;;;;;;;;6219839;23;20035;-81
2022/09/17 14:38:21;;;;;;;1.52;0.90;;;;;;;;;;6220025;23;20008;-81
2022/09/17 14:40:55;;;;;;;1.45;1.30;;;;;;;;;;6219579;23;20015;-82
2022/09/17 14:43:36;;;;;;;2.15;1.95;;;;;;;;;;6219549;23;20067;-84
2022/09/17 18:06:38;;;;;;;0.90;0.80;;;;;;;;;;6273323;22;20057;-82
2022/09/17 18:09:04;;;;;;;1.02;0.77;;;;;;;;;;6276460;22;20034;-84
2022/09/17 18:11:31;;;;;;;0.85;0.85;;;;;;;;;;6277819;22;20003;-80
2022/09/17 18:13:59;;;;;;;0.60;0.60;;;;;;;;;;6250743;22;20008;-82
2022/09/17 18:16:25;;;;;;;0.80;0.80;;;;;;;;;;6247009;22;19996;-83
2022/09/17 18:18:51;;;;;;;0.98;0.90;;;;;;;;;;6245366;23;20008;-84
2022/09/17 18:21:21;;;;;;;1.05;0.95;;;;;;;;;;6247228;22;20035;-82
2022/09/17 18:23:47;;;;;;;0.90;0.90;;;;;;;;;;6245082;22;20008;-83
2022/09/17 18:26:24;;;;;;;0.98;0.90;;;;;;;;;;6246884;22;20434;-83
2022/09/17 18:28:51;;;;;;;1.55;1.45;;;;;;;;;;6245141;23;20035;-83
2022/09/17 18:31:33;;;;;;;1.92;1.38;;;;;;;;;;6247107;22;20011;-87
2022/09/17 18:34:07;;;;;;;0.90;0.90;;;;;;;;;;6247154;22;20435;-88
2022/09/17 18:36:34;;;;;;;1.05;0.60;;;;;;;;;;6245741;23;20010;-85
2022/09/17 18:39:01;;;;;;;1.00;0.90;;;;;;;;;;6247187;22;20485;-85
2022/09/17 18:41:39;;;;;;;1.25;1.15;;;;;;;;;;6245307;23;20130;-85
2022/09/17 18:44:05;;;;;;;4.88;1.00;;;;;;;;;;6246897;22;20004;-84
2022/09/17 18:46:30;;;;;;;1.35;1.10;;;;;;;;;;6247723;22;20058;-83
2022/09/17 18:48:57;;;;;;;1.65;0.90;;;;;;;;;;6246753;23;20008;-84
2022/09/17 18:51:24;;;;;;;1.63;1.20;;;;;;;;;;6247654;23;20039;-85
2022/09/17 18:53:50;;;;;;;1.02;1.00;;;;;;;;;;6247438;22;19997;-85
2022/09/17 18:56:19;;;;;;;1.00;1.00;;;;;;;;;;6246340;23;20439;-84
2022/09/17 18:58:47;;;;;;;1.10;0.90;;;;;;;;;;6246096;23;20005;-85
2022/09/17 19:01:13;;;;;;;1.00;0.82;;;;;;;;;;6245899;23;20034;-85
2022/09/17 19:03:39;;;;;;;4.15;3.20;;;;;;;;;;6247248;22;20000;-85
2022/09/17 19:06:07;;;;;;;5.53;3.53;;;;;;;;;;6246055;23;20032;-85
2022/09/17 19:08:33;;;;;;;0.82;0.82;;;;;;;;;;6220095;23;20009;-84
2022/09/17 19:10:59;;;;;;;0.70;0.70;;;;;;;;;;6247430;23;20075;-85
2022/09/17 19:13:26;;;;;;;0.70;0.70;;;;;;;;;;6219746;23;20113;-84
2022/09/17 19:15:56;;;;;;;0.70;0.70;;;;;;;;;;6219901;23;20011;-85
2022/09/17 19:18:21;;;;;;;1.10;1.00;;;;;;;;;;6219783;23;20454;-85
2022/09/17 19:20:46;;;;;;;3.60;2.95;;;;;;;;;;6219952;23;20004;-85
2022/09/17 19:23:12;;;;;;;1.42;1.20;;;;;;;;;;6219644;23;20039;-85
2022/09/17 19:25:38;;;;;;;1.60;0.88;;;;;;;;;;6220100;23;20007;-84
2022/09/17 19:28:03;;;;;;;0.98;0.88;;;;;;;;;;6246866;23;20000;-85
2022/09/17 19:30:30;;;;;;;1.05;0.80;;;;;;;;;;6219860;23;20014;-85
2022/09/17 19:32:57;;;;;;;0.80;0.73;;;;;;;;;;6219625;23;20331;-85
2022/09/17 19:35:23;;;;;;;2.45;1.90;;;;;;;;;;6246661;23;20090;-84
2022/09/17 19:37:50;;;;;;;1.33;1.23;;;;;;;;;;6246529;23;20004;-85
2022/09/17 19:40:16;;;;;;;2.97;1.23;;;;;;;;;;6246665;23;20043;-83
2022/09/17 19:42:42;;;;;;;0.90;0.90;;;;;;;;;;6246450;22;19997;-83
2022/09/17 19:45:08;;;;;;;1.00;0.75;;;;;;;;;;6219774;23;20008;-83
2022/09/17 19:47:33;;;;;;;0.60;0.60;;;;;;;;;;6246618;23;20000;-86
2022/09/17 19:49:59;;;;;;;0.90;0.85;;;;;;;;;;6219773;23;20058;-85
2022/09/17 19:52:24;;;;;;;1.20;1.00;;;;;;;;;;6219694;23;20092;-85
2022/09/17 19:54:50;;;;;;;2.25;1.73;;;;;;;;;;6219413;23;20048;-85
2022/09/17 19:57:15;;;;;;;0.95;0.80;;;;;;;;;;6246557;23;20004;-86
2022/09/17 19:59:41;;;;;;;0.82;0.82;;;;;;;;;;6246710;23;19996;-85
2022/09/17 20:02:10;;;;;;;1.10;1.00;;;;;;;;;;6221833;22;20015;-86
2022/09/17 20:04:35;;;;;;;0.68;0.68;;;;;;;;;;6221871;23;20004;-85
2022/09/17 20:07:03;;;;;;;2.90;0.88;;;;;;;;;;6231021;23;20023;-85
2022/09/17 20:09:29;;;;;;;0.80;0.80;;;;;;;;;;6246824;23;20012;-85
2022/09/17 20:11:54;;;;;;;0.80;0.80;;;;;;;;;;6246746;23;20000;-85
2022/09/17 20:14:20;;;;;;;1.67;0.90;;;;;;;;;;6248207;22;20004;-85
2022/09/17 20:16:45;;;;;;;1.00;0.93;;;;;;;;;;6246574;23;20019;-85
2022/09/17 20:19:15;;;;;;;1.08;0.90;;;;;;;;;;6248349;22;20004;-85
2022/09/17 20:21:40;;;;;;;;;;;;;;;;;;6247048;23;20000;-85
2022/09/17 20:24:06;;;;;;;1.65;0.90;;;;;;;;;;6246683;22;19961;-85
2022/09/17 20:26:33;;;;;;;1.02;0.93;;;;;;;;;;6246617;23;20004;-85
2022/09/17 20:28:58;;;;;;;1.50;0.90;;;;;;;;;;6248054;22;19996;-83
2022/09/17 20:31:26;;;;;;;1.52;1.23;;;;;;;;;;6246278;23;20003;-84
2022/09/17 20:33:54;;;;;;;0.82;0.82;;;;;;;;;;6246325;22;20004;-84
2022/09/17 20:36:22;;;;;;;0.80;0.80;;;;;;;;;;6246403;23;20035;-84
2022/09/17 20:38:48;;;;;;;1.23;1.00;;;;;;;;;;6247990;22;20008;-83
2022/09/17 20:41:15;;;;;;;2.28;0.90;;;;;;;;;;6247942;22;20011;-84
2022/09/17 20:43:43;;;;;;;0.80;0.80;;;;;;;;;;6247674;22;20058;-84
2022/09/17 20:46:10;;;;;;;1.63;0.90;;;;;;;;;;6246339;23;20443;-84
2022/09/17 20:48:36;;;;;;;1.80;0.80;;;;;;;;;;6246417;23;20031;-84
2022/09/17 20:51:09;;;;;;;0.68;0.68;;;;;;;;;;6246482;23;20491;-84
2022/09/17 20:53:36;;;;;;;0.90;0.90;;;;;;;;;;6246187;22;20000;-85
2022/09/17 20:56:04;;;;;;;1.55;0.90;;;;;;;;;;6246343;23;20423;-85
2022/09/17 20:58:33;;;;;;;1.50;1.10;;;;;;;;;;6246188;23;20007;-84
2022/09/17 21:01:19;;;;;;;1.07;0.97;;;;;;;;;;6246260;23;20083;-84
2022/09/17 21:03:47;;;;;;;1.75;0.90;;;;;;;;;;6247737;22;20031;-86
2022/09/17 21:06:16;;;;;;;0.90;0.90;;;;;;;;;;6247848;22;20091;-85
2022/09/17 21:08:42;;;;;;;0.93;0.80;;;;;;;;;;6247703;23;20004;-85
2022/09/17 21:11:08;;;;;;;1.60;1.02;;;;;;;;;;6247653;23;20339;-84
2022/09/17 21:13:34;;;;;;;1.00;1.00;;;;;;;;;;6220650;23;20054;-85
2022/09/17 21:16:00;;;;;;;2.00;0.90;;;;;;;;;;6247601;23;20024;-86
2022/09/17 21:18:27;;;;;;;1.67;1.13;;;;;;;;;;6220923;23;20023;-86
2022/09/17 21:20:52;;;;;;;1.60;1.05;;;;;;;;;;6220959;23;20008;-86
2022/09/17 21:23:22;;;;;;;1.40;1.20;;;;;;;;;;6249002;22;20042;-86
2022/09/17 21:25:48;;;;;;;0.90;0.90;;;;;;;;;;6221628;23;20011;-85
2022/09/17 21:28:14;;;;;;;1.15;1.00;;;;;;;;;;6247740;23;20000;-86
2022/09/17 21:30:39;;;;;;;1.52;1.30;;;;;;;;;;6220803;23;20031;-84
2022/09/17 21:33:05;;;;;;;1.00;1.00;;;;;;;;;;6220695;23;20483;-85
2022/09/17 21:35:32;;;;;;;1.42;1.10;;;;;;;;;;6247330;23;20014;-86
2022/09/17 21:37:57;;;;;;;1.38;1.00;;;;;;;;;;6247586;23;20091;-86
2022/09/17 21:40:23;;;;;;;0.90;0.90;;;;;;;;;;6247680;23;19997;-86
2022/09/17 21:42:48;;;;;;;1.05;1.00;;;;;;;;;;6248157;22;20075;-87
2022/09/17 21:45:14;;;;;;;1.15;1.00;;;;;;;;;;6247725;23;20008;-86
2022/09/17 21:47:39;;;;;;;1.23;0.90;;;;;;;;;;6247684;23;20001;-87
2022/09/17 21:50:05;;;;;;;1.00;1.00;;;;;;;;;;6220969;23;20004;-85
2022/09/17 21:52:32;;;;;;;0.90;0.90;;;;;;;;;;6247220;22;20031;-81
2022/09/17 21:54:57;;;;;;;2.50;1.08;;;;;;;;;;6247152;23;20000;-84
2022/09/17 21:57:23;;;;;;;1.15;1.00;;;;;;;;;;6220491;23;20016;-81
